Time;durP1;ratioP1;P1;durP2;ratioP2;P2;SDS_P1;SDS_P2;PMS_P1;PMS_P2;Temp;Humidity;BMP_temperature;BMP_pressure;BME280_temperature;BME280_humidity;BME280_pressure;Samples;Min_cycle;Max_cycle;Signal;HPM_P1;HPM_P2
2022/12/25 00:01:44;;;;;;;;;4.00;2.00;;;;;20.28;58.61;100977.55;105297;1299;20177;-64
2022/12/25 00:04:11;;;;;;;;;4.50;4.00;;;;;20.29;58.56;100978.83;105261;1298;19654;-64
2022/12/25 00:06:39;;;;;;;;;2.00;2.00;;;;;20.29;58.72;100979.84;105294;1295;20421;-63
2022/12/25 00:09:06;;;;;;;;;2.00;2.00;;;;;20.30;58.51;100987.39;105281;1283;22949;-65
2022/12/25 00:11:34;;;;;;;;;2.00;2.00;;;;;20.29;58.37;101003.27;105229;1285;22234;-63
2022/12/25 00:14:01;;;;;;;;;2.00;2.00;;;;;20.28;58.55;101007.50;105399;1300;19961;-63
2022/12/25 00:16:29;;;;;;;;;2.00;2.00;;;;;20.28;58.46;101008.59;105296;1284;18530;-63
2022/12/25 00:18:57;;;;;;;;;2.00;2.00;;;;;20.27;58.31;101009.22;105289;1283;22861;-62
2022/12/25 00:21:25;;;;;;;;;2.00;2.00;;;;;20.27;58.24;101005.84;105278;1298;18927;-63
2022/12/25 00:23:52;;;;;;;;;4.00;4.00;;;;;20.27;58.22;101006.71;105301;1300;18501;-63
2022/12/25 00:26:20;;;;;;;;;2.00;2.00;;;;;20.27;58.24;101002.38;105268;1282;22531;-62
2022/12/25 00:28:47;;;;;;;;;4.00;4.00;;;;;20.27;58.13;101004.56;105300;1284;19618;-63
2022/12/25 00:31:14;;;;;;;;;2.00;2.00;;;;;20.27;58.25;101009.65;105270;1277;19942;-64
2022/12/25 00:33:42;;;;;;;;;4.00;4.00;;;;;20.26;58.32;101011.36;105284;1294;19551;-64
2022/12/25 00:36:09;;;;;;;;;1.50;1.50;;;;;20.25;58.39;101009.26;105293;1294;20515;-64
2022/12/25 00:38:37;;;;;;;;;2.00;2.00;;;;;20.25;58.33;101009.83;105321;1290;22192;-64
2022/12/25 00:41:04;;;;;;;;;4.00;4.00;;;;;20.25;58.33;101008.91;105405;1277;19513;-62
2022/12/25 00:43:31;;;;;;;;;;;;;;;20.25;58.24;101010.74;105345;1268;19566;-63
2022/12/25 00:45:59;;;;;;;;;3.00;3.00;;;;;20.25;58.40;101013.13;105309;1285;18187;-64
2022/12/25 00:48:26;;;;;;;;;2.00;2.00;;;;;20.25;58.42;101010.44;105336;1298;20895;-64
2022/12/25 00:50:54;;;;;;;;;2.00;2.00;;;;;20.25;58.43;101013.64;105392;1285;20097;-64
2022/12/25 00:53:21;;;;;;;;;2.00;2.00;;;;;20.26;58.21;101021.95;105374;1283;18425;-64
2022/12/25 00:55:49;;;;;;;;;2.00;2.00;;;;;20.24;58.38;101022.80;105375;1300;20810;-64
2022/12/25 00:58:16;;;;;;;;;2.00;2.00;;;;;20.24;58.37;101024.30;105309;1298;28160;-64
2022/12/25 01:00:43;;;;;;;;;2.00;2.00;;;;;20.24;58.13;101027.02;105348;1284;18654;-64
2022/12/25 01:03:11;;;;;;;;;2.00;2.00;;;;;20.25;58.26;101035.08;105351;1291;19637;-63
2022/12/25 01:05:38;;;;;;;;;2.00;2.00;;;;;20.24;58.29;101034.63;105255;1275;24276;-63
2022/12/25 01:08:06;;;;;;;;;2.00;2.00;;;;;20.24;58.16;101034.67;105350;1293;19981;-63
2022/12/25 01:10:33;;;;;;;;;2.00;2.00;;;;;20.24;58.26;101031.16;105335;1300;19447;-64
2022/12/25 01:13:01;;;;;;;;;1.50;1.50;;;;;20.23;58.17;101029.23;105355;1283;21194;-64
2022/12/25 01:15:28;;;;;;;;;1.50;1.50;;;;;20.24;58.15;101035.89;105319;1285;20039;-64
2022/12/25 01:17:55;;;;;;;;;2.00;2.00;;;;;20.23;58.14;101040.77;105304;1285;22550;-63
2022/12/25 01:20:23;;;;;;;;;2.00;2.00;;;;;20.23;58.03;101039.64;105296;1300;18381;-63
2022/12/25 01:22:50;;;;;;;;;;;;;;;20.22;58.12;101035.59;105320;1305;22880;-63
2022/12/25 01:25:18;;;;;;;;;2.00;2.00;;;;;20.23;58.09;101042.05;105315;1300;20719;-64
2022/12/25 01:27:45;;;;;;;;;2.00;2.00;;;;;20.22;58.00;101048.86;105320;1291;21290;-64
2022/12/25 01:30:13;;;;;;;;;2.00;1.00;;;;;20.22;57.96;101048.08;105345;1291;19980;-64
2022/12/25 01:32:40;;;;;;;;;3.00;3.00;;;;;20.22;58.12;101041.38;105263;1291;23922;-63
2022/12/25 01:35:07;;;;;;;;;3.00;2.00;;;;;20.22;58.12;101036.86;105309;1293;20589;-62
2022/12/25 01:37:35;;;;;;;;;2.00;2.00;;;;;20.21;58.00;101036.02;105323;1300;19846;-64
2022/12/25 01:40:02;;;;;;;;;2.00;2.00;;;;;20.22;58.01;101048.67;105300;1298;20855;-63
2022/12/25 01:42:30;;;;;;;;;2.00;2.00;;;;;20.21;57.88;101053.48;105306;1300;18396;-63
2022/12/25 01:44:57;;;;;;;;;2.00;2.00;;;;;20.21;57.86;101052.17;105305;1298;18549;-62
2022/12/25 01:47:24;;;;;;;;;2.00;2.00;;;;;20.20;58.11;101047.55;105257;1284;19496;-63
2022/12/25 01:49:52;;;;;;;;;2.00;1.00;;;;;20.20;57.83;101049.73;105299;1303;18389;-63
2022/12/25 01:52:19;;;;;;;;;1.00;1.00;;;;;20.20;57.86;101046.32;105376;1284;19975;-62
2022/12/25 01:54:47;;;;;;;;;1.00;1.00;;;;;20.19;58.00;101039.21;105329;1298;22539;-63
2022/12/25 01:57:14;;;;;;;;;2.00;2.00;;;;;20.20;57.96;101038.52;105371;1300;18526;-63
2022/12/25 01:59:42;;;;;;;;;2.00;2.00;;;;;20.20;57.96;101039.81;105331;1285;18799;-62
2022/12/25 02:02:09;;;;;;;;;2.00;2.00;;;;;20.20;57.85;101046.83;105397;1291;20292;-62
2022/12/25 02:04:38;;;;;;;;;1.00;1.00;;;;;20.21;58.06;101051.52;105340;1290;22634;-63
2022/12/25 02:07:06;;;;;;;;;2.00;2.00;;;;;20.20;57.92;101051.05;105303;1291;20088;-63
2022/12/25 02:09:33;;;;;;;;;2.00;2.00;;;;;20.19;57.94;101054.58;105318;1283;19717;-63
2022/12/25 02:12:00;;;;;;;;;4.00;4.00;;;;;20.20;57.94;101049.55;105257;1300;22206;-63
2022/12/25 02:14:28;;;;;;;;;2.00;2.00;;;;;20.20;57.85;101047.98;105253;1300;18677;-63
2022/12/25 02:16:55;;;;;;;;;2.00;2.00;;;;;20.19;57.87;101050.44;105333;1277;21936;-63
2022/12/25 02:19:23;;;;;;;;;2.00;2.00;;;;;20.19;58.03;101050.09;105355;1290;18395;-62
2022/12/25 02:21:50;;;;;;;;;2.00;2.00;;;;;20.19;57.75;101045.51;105355;1298;19981;-63
2022/12/25 02:24:17;;;;;;;;;1.00;1.00;;;;;20.18;57.80;101043.60;105367;1291;22750;-63
2022/12/25 02:26:45;;;;;;;;;2.00;2.00;;;;;20.18;58.03;101043.67;105388;1284;19593;-64
2022/12/25 02:29:14;;;;;;;;;2.00;2.00;;;;;20.18;57.84;101042.52;105439;1290;19500;-63
2022/12/25 02:31:42;;;;;;;;;1.33;1.33;;;;;20.18;57.84;101038.53;105392;1284;20789;-63
2022/12/25 02:34:09;;;;;;;;;1.00;1.00;;;;;20.18;57.93;101041.26;105326;1300;21905;-64
2022/12/25 02:36:37;;;;;;;;;2.00;2.00;;;;;20.19;57.85;101045.73;105319;1282;22609;-63
2022/12/25 02:41:49;;;;;;;;;2.00;2.00;;;;;20.18;57.63;101037.65;105297;1298;22786;-64
2022/12/25 03:06:45;;;;;;;;;2.00;2.00;;;;;20.17;57.77;101061.69;104868;1290;22798;-63
2022/12/25 03:11:57;;;;;;;;;1.00;1.00;;;;;20.16;57.59;101077.06;104872;1304;19330;-64
2022/12/25 03:17:18;;;;;;;;;2.00;2.00;;;;;20.15;57.87;101083.34;104575;1302;18821;-64
2022/12/25 03:28:06;;;;;;;;;;;;;;;20.15;57.76;101091.71;103886;1300;19517;-63
2022/12/25 03:33:19;;;;;;;;;2.00;2.00;;;;;20.14;57.55;101075.11;103881;1315;20334;-61
2022/12/25 03:35:47;;;;;;;;;2.00;2.00;;;;;20.14;57.62;101077.09;103834;1300;19446;-61
2022/12/25 04:36:09;;;;;;;;;2.00;2.00;;;;;20.10;57.43;101114.16;105277;1284;19675;-64
2022/12/25 04:38:36;;;;;;;;;4.00;2.00;;;;;20.10;57.55;101114.70;105351;1300;18821;-62
2022/12/25 04:41:04;;;;;;;;;2.00;2.00;;;;;20.11;57.61;101106.35;105475;1303;22363;-63
2022/12/25 04:43:31;;;;;;;;;;;;;;;20.10;57.40;101104.19;105346;1284;18296;-63
2022/12/25 04:45:58;;;;;;;;;2.00;1.00;;;;;20.11;57.42;101105.80;105375;1284;32630;-63
2022/12/25 04:48:26;;;;;;;;;;;;;;;20.11;57.60;101104.09;105360;1278;19780;-64
2022/12/25 04:50:53;;;;;;;;;;;;;;;20.10;57.48;101103.86;105344;1300;18535;-64
2022/12/25 04:53:21;;;;;;;;;2.00;1.50;;;;;20.10;57.53;101100.61;105362;1298;18253;-64
2022/12/25 04:55:48;;;;;;;;;2.00;2.00;;;;;20.10;57.62;101112.73;105374;1300;19310;-63
2022/12/25 04:58:16;;;;;;;;;2.00;2.00;;;;;20.10;57.46;101126.52;105352;1291;22138;-63
2022/12/25 05:00:43;;;;;;;;;;;;;;;20.10;57.42;101118.02;105357;1291;18532;-64
2022/12/25 05:03:11;;;;;;;;;1.50;1.50;;;;;20.09;57.56;101118.63;105370;1291;23374;-63
2022/12/25 05:05:38;;;;;;;;;1.50;1.50;;;;;20.09;57.74;101114.96;105253;1300;19413;-64
2022/12/25 05:08:06;;;;;;;;;1.00;1.00;;;;;20.09;57.44;101109.22;105377;1300;20238;-63
2022/12/25 05:10:34;;;;;;;;;2.00;2.00;;;;;20.09;57.66;101120.45;105345;1278;20763;-63
2022/12/25 05:13:01;;;;;;;;;2.00;2.00;;;;;20.09;57.36;101130.40;105350;1300;18414;-64
2022/12/25 05:15:29;;;;;;;;;2.00;2.00;;;;;20.10;57.46;101140.68;105372;1300;18543;-63
2022/12/25 05:17:56;;;;;;;;;2.00;2.00;;;;;20.10;57.47;101139.05;105343;1300;20844;-63
2022/12/25 05:20:23;;;;;;;;;1.00;1.00;;;;;20.09;57.51;101139.73;105376;1292;18443;-62
2022/12/25 05:22:51;;;;;;;;;1.00;1.00;;;;;20.09;57.39;101147.14;105390;1300;23353;-64
2022/12/25 05:25:19;;;;;;;;;2.00;2.00;;;;;20.07;57.35;101151.66;105341;1284;21031;-64
2022/12/25 05:27:46;;;;;;;;;1.00;1.00;;;;;20.08;57.44;101160.64;105340;1300;20836;-64
2022/12/25 05:30:13;;;;;;;;;2.00;2.00;;;;;20.09;57.55;101163.10;105260;1306;121239;-63
2022/12/25 05:32:41;;;;;;;;;2.00;2.00;;;;;20.09;57.50;101161.23;105301;1283;19614;-62
2022/12/25 05:35:08;;;;;;;;;2.00;2.00;;;;;20.09;57.32;101161.33;105392;1299;20130;-63
2022/12/25 05:37:36;;;;;;;;;2.00;2.00;;;;;20.08;57.51;101160.44;105382;1291;18538;-63
2022/12/25 05:40:03;;;;;;;;;2.00;2.00;;;;;20.09;57.50;101169.63;105336;1275;19425;-64
2022/12/25 05:42:31;;;;;;;;;4.00;4.00;;;;;20.09;57.44;101170.84;105352;1278;18904;-63
2022/12/25 05:44:58;;;;;;;;;1.00;1.00;;;;;20.09;57.43;101177.24;105331;1291;19086;-62
2022/12/25 05:47:25;;;;;;;;;4.00;4.00;;;;;20.09;57.49;101179.27;105370;1284;19261;-63
2022/12/25 05:49:53;;;;;;;;;;;;;;;20.09;57.63;101184.89;105393;1300;18456;-63
2022/12/25 05:52:20;;;;;;;;;;;;;;;20.08;57.44;101182.27;105384;1282;18180;-63
2022/12/25 05:54:48;;;;;;;;;1.00;1.00;;;;;20.08;57.31;101179.49;105346;1291;22187;-64
2022/12/25 05:57:15;;;;;;;;;1.00;1.00;;;;;20.07;57.25;101179.69;105314;1298;18355;-63
2022/12/25 05:59:43;;;;;;;;;1.00;1.00;;;;;20.08;57.55;101190.61;105346;1285;22653;-62
2022/12/25 06:02:10;;;;;;;;;;;;;;;20.08;57.49;101199.66;105407;1291;20750;-62
2022/12/25 06:04:38;;;;;;;;;2.00;2.00;;;;;20.08;57.28;101206.94;105387;1285;22641;-63
2022/12/25 06:07:05;;;;;;;;;2.00;2.00;;;;;20.08;57.49;101208.16;105328;1291;18689;-62
2022/12/25 06:09:33;;;;;;;;;1.00;1.00;;;;;20.08;57.42;101204.04;105337;1298;19297;-63
2022/12/25 06:12:00;;;;;;;;;1.00;1.00;;;;;20.08;57.37;101205.30;105331;1300;18499;-63
2022/12/25 06:14:27;;;;;;;;;4.00;2.00;;;;;20.07;57.42;101198.46;105328;1306;22244;-63
2022/12/25 06:16:55;;;;;;;;;1.50;1.50;;;;;20.08;57.21;101202.08;105393;1300;19793;-63
2022/12/25 06:19:22;;;;;;;;;1.00;1.00;;;;;20.07;57.30;101204.11;105345;1285;18843;-64
2022/12/25 06:21:50;;;;;;;;;2.00;2.00;;;;;20.07;57.49;101208.64;105357;1277;19656;-64
2022/12/25 06:24:17;;;;;;;;;2.00;2.00;;;;;20.07;57.38;101211.80;105256;1284;19342;-64
2022/12/25 06:26:45;;;;;;;;;2.00;2.00;;;;;20.08;57.50;101220.38;105322;1300;19580;-64
2022/12/25 06:29:12;;;;;;;;;3.00;2.00;;;;;20.06;57.45;101221.83;105365;1277;18529;-64
2022/12/25 06:31:39;;;;;;;;;4.00;2.00;;;;;20.06;57.27;101225.48;105317;1284;21854;-64
2022/12/25 06:34:07;;;;;;;;;2.00;2.00;;;;;20.07;57.33;101224.30;105326;1285;19576;-64
2022/12/25 06:36:34;;;;;;;;;1.50;1.50;;;;;20.07;57.33;101223.94;105322;1300;23192;-63
2022/12/25 06:39:02;;;;;;;;;2.00;2.00;;;;;20.06;57.48;101221.63;105225;1285;20835;-64
2022/12/25 06:41:29;;;;;;;;;2.00;2.00;;;;;20.06;57.53;101226.25;105262;1283;19869;-64
2022/12/25 06:43:57;;;;;;;;;1.50;1.50;;;;;20.05;57.46;101232.98;105322;1300;18565;-63
2022/12/25 06:46:24;;;;;;;;;2.00;2.00;;;;;20.05;57.24;101241.58;105329;1285;19982;-63
2022/12/25 06:48:51;;;;;;;;;2.00;2.00;;;;;20.06;57.07;101246.19;105287;1284;22185;-63
2022/12/25 06:51:19;;;;;;;;;2.00;2.00;;;;;20.05;57.50;101252.58;105303;1281;20211;-64
2022/12/25 06:53:46;;;;;;;;;2.00;2.00;;;;;20.06;57.33;101259.36;105282;1299;19423;-64
2022/12/25 06:56:14;;;;;;;;;2.00;2.00;;;;;20.05;57.61;101268.91;105240;1292;18794;-64
2022/12/25 06:58:42;;;;;;;;;;;;;;;20.05;57.25;101272.23;105269;1277;22715;-63
2022/12/25 07:01:13;;;;;;;;;2.00;2.00;;;;;20.06;57.36;101283.34;105286;1284;19362;-64
2022/12/25 07:03:41;;;;;;;;;2.00;1.00;;;;;20.07;57.32;101281.63;105336;1285;18407;-62
2022/12/25 07:06:08;;;;;;;;;2.00;2.00;;;;;20.06;57.51;101284.84;105336;1291;22745;-64
2022/12/25 07:08:36;;;;;;;;;2.00;2.00;;;;;20.07;57.33;101290.11;105376;1288;19309;-63
2022/12/25 07:11:03;;;;;;;;;2.00;2.00;;;;;20.08;57.69;101293.06;105425;1300;18320;-63
2022/12/25 07:13:30;;;;;;;;;2.00;2.00;;;;;20.09;57.59;101290.08;105372;1284;18772;-64
2022/12/25 07:15:58;;;;;;;;;1.50;1.50;;;;;20.09;57.42;101291.02;105383;1299;19290;-62
2022/12/25 07:18:25;;;;;;;;;5.00;4.00;;;;;20.10;57.46;101291.69;105367;1283;24167;-63
2022/12/25 07:20:54;;;;;;;;;1.00;1.00;;;;;20.09;57.79;101292.77;105305;1296;18766;-63
2022/12/25 07:23:21;;;;;;;;;1.00;1.00;;;;;20.11;57.86;101295.69;105356;1306;19342;-63
2022/12/25 07:25:49;;;;;;;;;2.00;2.00;;;;;20.14;58.07;101309.85;105357;1278;19716;-62
2022/12/25 07:28:16;;;;;;;;;5.00;4.50;;;;;20.17;57.98;101309.41;105312;1284;22799;-62
2022/12/25 07:30:44;;;;;;;;;2.00;2.00;;;;;20.15;58.09;101304.27;105332;1276;19380;-63
2022/12/25 07:33:11;;;;;;;;;4.00;2.00;;;;;20.15;58.32;101304.74;105346;1285;22841;-62
2022/12/25 07:35:39;;;;;;;;;2.00;2.00;;;;;20.13;58.39;101310.73;105311;1283;18599;-63
2022/12/25 07:38:06;;;;;;;;;2.00;2.00;;;;;20.12;58.52;101315.77;105386;1285;19479;-64
2022/12/25 07:40:33;;;;;;;;;18.00;14.00;;;;;20.10;58.52;101325.92;105353;1285;19049;-63
2022/12/25 07:43:01;;;;;;;;;37.00;29.00;;;;;19.87;56.36;101328.44;105337;1291;18575;-64
2022/12/25 07:45:28;;;;;;;;;27.00;26.00;;;;;19.52;51.97;101331.05;105332;1278;19334;-64
2022/12/25 07:47:56;;;;;;;;;42.00;34.00;;;;;19.26;48.44;101333.67;105354;1285;18555;-64
2022/12/25 07:50:23;;;;;;;;;36.00;29.00;;;;;19.07;46.51;101333.58;105322;1298;20577;-64
2022/12/25 07:52:50;;;;;;;;;38.00;34.00;;;;;19.00;46.27;101333.39;105270;1300;19299;-63
2022/12/25 07:55:18;;;;;;;;;31.00;26.00;;;;;19.14;46.63;101334.15;105337;1278;24706;-63
2022/12/25 07:57:45;;;;;;;;;28.00;22.00;;;;;19.30;46.99;101332.58;105355;1298;18728;-63
2022/12/25 08:00:13;;;;;;;;;28.00;22.00;;;;;19.44;47.01;101335.84;105340;1283;19214;-64
2022/12/25 08:02:40;;;;;;;;;19.50;19.00;;;;;19.54;47.60;101336.36;105366;1291;20067;-63
2022/12/25 08:05:08;;;;;;;;;19.00;16.00;;;;;19.63;47.84;101335.80;105352;1285;18682;-62
2022/12/25 08:07:35;;;;;;;;;19.50;15.00;;;;;19.71;47.92;101338.73;105294;1278;19422;-60
2022/12/25 08:10:03;;;;;;;;;15.00;14.00;;;;;19.74;48.60;101338.46;105306;1298;20226;-60
2022/12/25 08:12:30;;;;;;;;;17.50;13.50;;;;;19.75;48.78;101333.30;105277;1277;20315;-60
2022/12/25 08:14:57;;;;;;;;;16.50;13.00;;;;;19.79;49.38;101333.79;105337;1304;22148;-59
2022/12/25 08:17:25;;;;;;;;;14.00;13.00;;;;;19.82;50.19;101331.48;105320;1300;18533;-58
2022/12/25 08:19:52;;;;;;;;;13.50;12.00;;;;;19.85;50.69;101330.46;105371;1303;22293;-61
2022/12/25 08:22:20;;;;;;;;;13.00;11.00;;;;;19.88;51.24;101337.16;105354;1290;20736;-60
2022/12/25 08:24:47;;;;;;;;;14.00;11.00;;;;;19.91;52.04;101342.92;105356;1285;23037;-59
2022/12/25 08:27:15;;;;;;;;;7.00;7.00;;;;;19.90;52.47;101346.05;105335;1291;20038;-60
2022/12/25 08:29:42;;;;;;;;;11.00;10.00;;;;;19.90;53.14;101345.73;105275;1285;19365;-61
2022/12/25 08:32:09;;;;;;;;;11.00;11.00;;;;;19.93;53.14;101350.52;105384;1300;18719;-60
2022/12/25 08:34:37;;;;;;;;;11.00;11.00;;;;;19.94;53.57;101350.52;105306;1285;21547;-61
2022/12/25 08:37:04;;;;;;;;;14.00;10.00;;;;;19.95;53.80;101351.17;105341;1303;19289;-60
2022/12/25 08:39:32;;;;;;;;;6.00;6.00;;;;;19.96;54.33;101349.64;105336;1278;22104;-60
2022/12/25 08:41:59;;;;;;;;;9.00;9.00;;;;;19.96;54.33;101341.61;105422;1285;19957;-61
2022/12/25 08:44:27;;;;;;;;;13.00;11.00;;;;;19.98;54.74;101333.88;105275;1283;22215;-60
2022/12/25 08:46:54;;;;;;;;;11.00;11.00;;;;;19.99;54.76;101330.80;105295;1285;18465;-58
2022/12/25 08:49:22;;;;;;;;;11.00;10.00;;;;;20.03;54.99;101338.06;105241;1291;18649;-59
2022/12/25 08:51:49;;;;;;;;;7.00;7.00;;;;;20.03;55.13;101343.84;105238;1294;20794;-58
2022/12/25 08:54:17;;;;;;;;;7.00;7.00;;;;;20.05;55.37;101348.02;105294;1300;18517;-60
2022/12/25 08:56:44;;;;;;;;;9.00;7.50;;;;;20.05;55.75;101349.63;105267;1283;18618;-59
2022/12/25 08:59:12;;;;;;;;;8.00;5.00;;;;;20.05;56.04;101346.58;105364;1299;19297;-59
2022/12/25 09:01:39;;;;;;;;;8.00;8.00;;;;;20.08;55.99;101345.33;105341;1300;22264;-59
2022/12/25 09:04:07;;;;;;;;;7.00;7.00;;;;;20.11;56.38;101347.09;105351;1294;22204;-57
2022/12/25 09:06:34;;;;;;;;;8.00;8.00;;;;;20.11;56.37;101352.05;105324;1294;22733;-60
2022/12/25 09:09:02;;;;;;;;;;;;;;;20.13;56.34;101356.98;105343;1300;18413;-59
2022/12/25 09:11:29;;;;;;;;;9.00;8.00;;;;;20.14;56.68;101354.86;105322;1277;20850;-61
2022/12/25 09:13:57;;;;;;;;;;;;;;;20.14;56.88;101355.64;105270;1291;23983;-60
2022/12/25 09:16:24;;;;;;;;;10.00;7.50;;;;;20.13;57.00;101354.59;105417;1284;18859;-59
2022/12/25 09:18:52;;;;;;;;;6.00;6.00;;;;;20.14;56.88;101353.94;105332;1282;22455;-59
2022/12/25 09:21:19;;;;;;;;;7.00;7.00;;;;;20.13;56.82;101354.08;105346;1300;20952;-61
2022/12/25 09:23:47;;;;;;;;;7.00;5.00;;;;;20.14;56.91;101360.27;105327;1283;18500;-61
2022/12/25 09:26:14;;;;;;;;;8.00;7.00;;;;;20.16;57.00;101365.77;105376;1277;22762;-61
2022/12/25 09:28:42;;;;;;;;;5.00;5.00;;;;;20.17;57.26;101368.16;105309;1283;19614;-59
2022/12/25 09:31:09;;;;;;;;;7.00;5.00;;;;;20.17;57.16;101369.26;105297;1278;19924;-60
2022/12/25 09:33:37;;;;;;;;;7.00;7.00;;;;;20.19;57.39;101368.55;105331;1300;18512;-61
2022/12/25 09:36:04;;;;;;;;;4.00;4.00;;;;;20.20;57.43;101369.66;105252;1300;22198;-60
2022/12/25 09:38:32;;;;;;;;;5.00;5.00;;;;;20.19;57.35;101371.06;105162;1291;18298;-60
2022/12/25 09:40:59;;;;;;;;;5.00;5.00;;;;;20.18;57.64;101366.64;105326;1292;18456;-60
2022/12/25 09:43:26;;;;;;;;;14.00;11.00;;;;;20.18;57.83;101367.02;105293;1285;20753;-60
2022/12/25 09:45:54;;;;;;;;;10.00;8.00;;;;;20.16;57.92;101366.24;105353;1298;18571;-60
2022/12/25 09:48:21;;;;;;;;;6.00;6.00;;;;;20.13;57.79;101362.74;105357;1282;20147;-61
2022/12/25 09:50:49;;;;;;;;;8.00;7.00;;;;;20.13;57.93;101368.80;105349;1277;19254;-61
2022/12/25 09:53:16;;;;;;;;;7.00;7.00;;;;;20.11;57.69;101366.61;105324;1283;18403;-61
2022/12/25 09:55:44;;;;;;;;;7.00;5.00;;;;;20.10;57.75;101365.30;105407;1283;20211;-60
2022/12/25 09:58:11;;;;;;;;;7.00;5.00;;;;;20.09;57.78;101357.77;105298;1276;19324;-59
2022/12/25 10:00:38;;;;;;;;;10.00;8.00;;;;;20.08;57.83;101354.64;105310;1298;18537;-58
2022/12/25 10:03:06;;;;;;;;;7.00;5.00;;;;;20.07;57.60;101355.66;105325;1284;20340;-59
2022/12/25 10:05:33;;;;;;;;;7.00;5.00;;;;;20.07;57.73;101352.52;105290;1283;22746;-59
2022/12/25 10:08:01;;;;;;;;;6.00;5.00;;;;;20.06;57.65;101346.16;105347;1291;19623;-57
2022/12/25 10:10:28;;;;;;;;;7.00;7.00;;;;;20.05;57.39;101346.19;105350;1283;20011;-56
2022/12/25 10:12:56;;;;;;;;;5.00;5.00;;;;;20.04;57.57;101352.80;105316;1278;20701;-57
2022/12/25 10:15:23;;;;;;;;;;;;;;;20.04;57.42;101358.69;105309;1283;20773;-55
2022/12/25 10:17:51;;;;;;;;;5.00;5.00;;;;;20.04;57.47;101358.23;105344;1285;19561;-59
2022/12/25 10:20:18;;;;;;;;;7.00;5.00;;;;;20.05;57.60;101360.23;105323;1283;20945;-58
2022/12/25 10:22:45;;;;;;;;;5.00;5.00;;;;;20.04;57.63;101361.88;105327;1285;18455;-56
2022/12/25 10:25:13;;;;;;;;;7.50;4.00;;;;;20.05;57.63;101360.16;105236;1290;19002;-61
2022/12/25 10:27:40;;;;;;;;;4.00;4.00;;;;;20.06;57.67;101361.33;105244;1283;19167;-57
2022/12/25 10:30:08;;;;;;;;;7.00;5.00;;;;;20.09;57.45;101360.70;105312;1294;18455;-59
2022/12/25 10:32:35;;;;;;;;;4.50;4.50;;;;;20.11;57.47;101362.64;105257;1277;23456;-59
2022/12/25 10:35:03;;;;;;;;;6.00;5.00;;;;;20.14;57.85;101366.84;105357;1285;20995;-61
2022/12/25 10:37:30;;;;;;;;;9.00;8.00;;;;;20.16;57.97;101370.66;105331;1300;35856;-59
2022/12/25 10:39:58;;;;;;;;;15.00;15.00;;;;;20.17;58.43;101369.27;105238;1300;19982;-60
2022/12/25 10:42:25;;;;;;;;;;;;;;;20.21;58.75;101370.67;105243;1291;19370;-61
2022/12/25 10:44:53;;;;;;;;;;;;;;;20.26;59.47;101372.69;105317;1300;19936;-58
2022/12/25 10:47:20;;;;;;;;;87.00;68.00;;;;;20.32;59.95;101373.73;105214;1292;24009;-62
2022/12/25 10:49:47;;;;;;;;;;;;;;;20.33;60.33;101375.02;105378;1277;19325;-60
2022/12/25 10:52:15;;;;;;;;;53.00;46.00;;;;;20.32;60.40;101376.03;105242;1285;22429;-61
2022/12/25 10:54:42;;;;;;;;;46.50;43.00;;;;;20.28;60.54;101368.80;105317;1278;20004;-62
2022/12/25 10:57:11;;;;;;;;;38.00;34.00;;;;;20.28;60.55;101364.46;105351;1283;20713;-59
2022/12/25 10:59:39;;;;;;;;;38.50;32.50;;;;;20.29;60.43;101362.77;105321;1283;19963;-62
2022/12/25 11:02:06;;;;;;;;;25.50;24.00;;;;;20.30;60.32;101364.89;105333;1300;18776;-61
2022/12/25 11:04:34;;;;;;;;;27.50;23.50;;;;;20.30;60.33;101363.53;105336;1282;20697;-59
2022/12/25 11:07:01;;;;;;;;;25.00;24.50;;;;;20.30;60.48;101365.06;105357;1275;18510;-60
2022/12/25 11:09:29;;;;;;;;;23.00;22.50;;;;;20.30;60.19;101370.14;105383;1300;18635;-60
2022/12/25 11:11:56;;;;;;;;;25.00;21.00;;;;;20.28;60.36;101371.61;105290;1285;20872;-61
2022/12/25 11:14:25;;;;;;;;;20.00;18.00;;;;;20.28;60.03;101373.55;105330;1277;21607;-60
2022/12/25 11:16:53;;;;;;;;;24.00;20.00;;;;;20.30;60.05;101373.95;105322;1298;18652;-60
2022/12/25 11:19:21;;;;;;;;;15.00;14.50;;;;;20.31;59.89;101368.98;105282;1278;19731;-60
2022/12/25 11:21:48;;;;;;;;;20.00;17.00;;;;;20.31;59.73;101370.03;105266;1283;24995;-62
2022/12/25 11:24:16;;;;;;;;;20.00;17.00;;;;;20.29;59.58;101369.48;105228;1278;20069;-61
2022/12/25 11:26:43;;;;;;;;;15.00;15.00;;;;;20.27;59.29;101362.17;105242;1285;19348;-59
2022/12/25 11:29:10;;;;;;;;;15.00;15.00;;;;;20.27;59.32;101355.27;105347;1283;18560;-60
2022/12/25 11:31:38;;;;;;;;;14.50;14.50;;;;;20.30;59.49;101353.13;105319;1291;23211;-61
2022/12/25 11:34:05;;;;;;;;;15.00;12.50;;;;;20.31;59.43;101359.62;105324;1283;19322;-61
2022/12/25 11:36:33;;;;;;;;;15.00;14.00;;;;;20.30;59.08;101363.02;105341;1293;20127;-62
2022/12/25 11:39:00;;;;;;;;;12.50;11.50;;;;;20.29;59.29;101366.19;105331;1284;24127;-62
2022/12/25 11:41:28;;;;;;;;;11.00;11.00;;;;;20.29;59.34;101362.61;105286;1291;20834;-62
2022/12/25 11:43:55;;;;;;;;;12.00;12.00;;;;;20.27;59.24;101365.70;105322;1300;19945;-62
2022/12/25 11:46:22;;;;;;;;;14.00;12.00;;;;;20.24;58.82;101366.92;105344;1283;20565;-59
2022/12/25 11:48:54;;;;;;;;;12.00;12.00;;;;;20.21;58.60;101359.98;105203;1275;19496;-59
2022/12/25 11:51:22;;;;;;;;;12.00;11.00;;;;;20.19;58.80;101357.11;105745;1285;18510;-61
2022/12/25 11:53:49;;;;;;;;;14.00;11.00;;;;;20.18;58.91;101354.29;105301;1282;18573;-61
2022/12/25 11:56:17;;;;;;;;;12.00;10.00;;;;;20.17;58.80;101344.21;105359;1300;20834;-62
2022/12/25 11:58:44;;;;;;;;;11.00;10.00;;;;;20.17;58.64;101342.98;105306;1300;22814;-61
2022/12/25 12:01:12;;;;;;;;;10.50;10.00;;;;;20.16;58.91;101342.13;105331;1300;18573;-60
2022/12/25 12:03:39;;;;;;;;;9.00;9.00;;;;;20.15;58.88;101339.14;105319;1292;20839;-63
2022/12/25 12:06:06;;;;;;;;;12.50;10.00;;;;;20.15;58.97;101332.65;105295;1300;19418;-61
2022/12/25 12:08:34;;;;;;;;;7.00;7.00;;;;;20.13;58.71;101326.52;105287;1291;20032;-60
2022/12/25 12:11:14;;;;;;;;;14.00;11.00;;;;;20.16;58.76;101324.02;105345;1291;19597;-60
2022/12/25 12:13:42;;;;;;;;;11.00;10.00;;;;;20.18;58.85;101326.11;105285;1297;18642;-61
2022/12/25 12:16:10;;;;;;;;;7.50;7.50;;;;;20.21;58.58;101323.10;105289;1292;21970;-59
2022/12/25 12:18:37;;;;;;;;;10.00;7.00;;;;;20.24;58.75;101317.76;105236;1300;21061;-61
2022/12/25 12:21:05;;;;;;;;;9.00;8.00;;;;;20.25;58.96;101318.91;105264;1299;19506;-60
2022/12/25 12:23:32;;;;;;;;;7.00;7.00;;;;;20.26;58.79;101317.01;105224;1300;20020;-62
2022/12/25 12:25:59;;;;;;;;;10.00;8.00;;;;;20.27;58.82;101321.95;105378;1291;21380;-62
2022/12/25 12:28:27;;;;;;;;;10.00;10.00;;;;;20.27;58.80;101321.78;105252;1300;19615;-63
2022/12/25 12:30:54;;;;;;;;;7.50;7.50;;;;;20.28;59.05;101322.60;105327;1277;19004;-62
2022/12/25 12:33:22;;;;;;;;;5.00;5.00;;;;;20.29;59.37;101321.60;105348;1301;19290;-63
2022/12/25 12:35:49;;;;;;;;;7.00;7.00;;;;;20.31;59.16;101329.36;105316;1285;19967;-61
2022/12/25 12:38:17;;;;;;;;;11.00;10.00;;;;;20.33;59.19;101329.68;105360;1292;22384;-60
2022/12/25 12:40:44;;;;;;;;;8.00;7.00;;;;;20.35;59.58;101332.25;105355;1299;19700;-61
2022/12/25 12:43:12;;;;;;;;;;;;;;;20.35;59.36;101330.77;105281;1282;18959;-61
2022/12/25 12:45:39;;;;;;;;;8.00;8.00;;;;;20.38;59.92;101337.65;105329;1300;18205;-61
2022/12/25 12:48:06;;;;;;;;;;;;;;;20.39;60.24;101342.09;105332;1298;19310;-63
2022/12/25 12:50:34;;;;;;;;;11.00;8.00;;;;;20.42;60.40;101344.39;105269;1291;22809;-60
2022/12/25 12:53:04;;;;;;;;;7.50;7.00;;;;;20.45;60.48;101346.77;105307;1300;18580;-63
2022/12/25 12:55:31;;;;;;;;;11.00;10.50;;;;;20.46;60.35;101346.69;105328;1291;21938;-66
2022/12/25 12:57:59;;;;;;;;;8.00;7.00;;;;;20.46;59.82;101348.09;105289;1281;19590;-61